Terminal Aerodrome Forecast
Issued by NWS

Home | Current Version | Previous Version | Text Only | Print | Product List | Glossary On
Versions: 1 2 3 4 5 6 7 8 9 10 11 12 13 14 15 16 17
000
FTUS43 KLSX 200900 AAA
TAFCPS
TAF AMD
KCPS 200957Z 2010/2106 00000KT 3SM BR SCT250
     FM201200 VRB03KT P6SM SCT250
     FM201800 18007KT P6SM SCT050=

USA.gov is the U.S. government's official web portal to all federal, state and local government web resources and services.